createdAt,value
2023-03-06T00:03:33.834Z,1.80
2023-03-06T00:07:45.632Z,2.17
2023-03-06T00:11:57.260Z,2.00
2023-03-06T00:16:09.055Z,2.23
2023-03-06T00:20:21.971Z,2.20
2023-03-06T00:24:33.576Z,2.10
2023-03-06T00:28:45.235Z,2.10
2023-03-06T00:32:56.906Z,1.90
2023-03-06T00:37:08.514Z,2.30
2023-03-06T00:41:21.773Z,2.40
2023-03-06T00:45:33.424Z,2.60
2023-03-06T00:49:46.179Z,2.50
2023-03-06T00:53:57.843Z,2.30
2023-03-06T00:58:09.457Z,2.50
2023-03-06T01:02:21.842Z,2.60
2023-03-06T01:06:33.605Z,2.60
2023-03-06T01:10:48.154Z,2.93
2023-03-06T01:15:01.088Z,2.80
2023-03-06T01:19:14.646Z,2.90
2023-03-06T01:23:26.363Z,2.83
2023-03-06T01:27:40.295Z,2.53
2023-03-06T01:31:55.310Z,2.80
2023-03-06T01:36:11.219Z,3.00
2023-03-06T01:40:22.892Z,2.90
2023-03-06T01:44:34.774Z,3.17
2023-03-06T01:48:48.486Z,3.13
2023-03-06T01:53:00.987Z,2.90
2023-03-06T01:57:18.008Z,2.90
2023-03-06T02:01:32.299Z,2.90
2023-03-06T02:05:44.319Z,3.30
2023-03-06T02:09:56.072Z,4.60
2023-03-06T02:14:12.547Z,4.77
2023-03-06T02:18:24.922Z,5.63
2023-03-06T02:22:46.303Z,6.57
2023-03-06T02:26:59.652Z,6.40
2023-03-06T02:31:22.495Z,6.67
2023-03-06T02:35:38.418Z,7.47
2023-03-06T02:40:02.386Z,6.93
2023-03-06T02:44:14.243Z,7.00
2023-03-06T02:48:27.544Z,7.30
2023-03-06T02:52:39.241Z,7.13
2023-03-06T02:56:50.828Z,7.47
2023-03-06T03:01:02.689Z,7.57
2023-03-06T03:05:15.346Z,7.73
2023-03-06T03:09:29.612Z,7.77
2023-03-06T03:13:41.335Z,7.80
2023-03-06T03:17:57.360Z,8.63
2023-03-06T03:22:09.105Z,8.73
2023-03-06T03:26:22.166Z,8.30
2023-03-06T03:31:08.029Z,8.60
2023-03-06T03:35:20.227Z,9.43
2023-03-06T03:39:32.391Z,8.83
2023-03-06T03:43:44.611Z,8.53
2023-03-06T03:47:56.292Z,9.17
2023-03-06T03:52:09.485Z,9.00
2023-03-06T03:56:23.065Z,9.23
2023-03-06T04:00:42.193Z,9.83
2023-03-06T04:04:58.466Z,9.20
2023-03-06T04:09:10.587Z,8.50
2023-03-06T04:13:23.975Z,8.87
2023-03-06T04:17:36.305Z,8.97
2023-03-06T04:21:51.138Z,7.60
2023-03-06T04:26:04.024Z,8.37
2023-03-06T04:30:16.159Z,8.13
2023-03-06T04:34:27.998Z,8.37
2023-03-06T04:38:39.798Z,7.90
2023-03-06T04:42:51.619Z,8.17
2023-03-06T04:47:03.325Z,8.07
2023-03-06T04:51:15.437Z,7.63
2023-03-06T04:55:27.900Z,7.80
2023-03-06T04:59:39.535Z,8.27
2023-03-06T05:03:51.206Z,7.83
2023-03-06T05:08:02.820Z,8.47
2023-03-06T05:12:14.361Z,8.17
2023-03-06T05:16:26.397Z,8.47
2023-03-06T05:20:38.149Z,7.93
2023-03-06T05:24:49.859Z,7.80
2023-03-06T05:29:01.531Z,8.60
2023-03-06T05:33:13.172Z,7.93
2023-03-06T05:37:24.926Z,8.10
2023-03-06T05:41:36.708Z,7.50
2023-03-06T05:45:50.480Z,7.87
2023-03-06T05:50:02.291Z,7.30
2023-03-06T05:54:13.965Z,7.23
2023-03-06T05:58:26.790Z,7.17
2023-03-06T06:02:38.490Z,6.47
2023-03-06T06:07:08.368Z,6.43
2023-03-06T06:11:20.837Z,5.83
2023-03-06T06:15:32.569Z,6.27
2023-03-06T06:19:44.353Z,5.47
2023-03-06T06:23:55.973Z,6.00
2023-03-06T06:28:07.648Z,5.50
2023-03-06T06:32:19.477Z,5.57
2023-03-06T06:36:31.222Z,4.50
2023-03-06T06:40:43.248Z,4.73
2023-03-06T06:44:54.780Z,4.67
2023-03-06T06:49:06.579Z,5.33
2023-03-06T06:53:18.204Z,5.37
2023-03-06T06:57:30.128Z,5.53
2023-03-06T07:01:41.790Z,5.00
2023-03-06T07:05:56.622Z,4.93
2023-03-06T07:10:14.094Z,4.37
2023-03-06T07:14:26.048Z,4.93
2023-03-06T07:18:37.741Z,4.60
2023-03-06T07:22:51.674Z,4.03
2023-03-06T07:27:03.748Z,3.70
2023-03-06T07:31:15.600Z,4.10
2023-03-06T07:35:27.598Z,3.80
2023-03-06T07:39:39.462Z,4.73
2023-03-06T07:43:51.198Z,4.33
2023-03-06T07:48:04.978Z,4.07
2023-03-06T07:52:17.453Z,3.67
2023-03-06T07:56:29.250Z,4.30
2023-03-06T08:00:40.991Z,3.77
2023-03-06T08:04:54.003Z,3.10
2023-03-06T08:09:05.656Z,2.70
2023-03-06T08:13:22.424Z,2.50
2023-03-06T08:17:34.085Z,2.13
2023-03-06T08:21:45.823Z,2.20
2023-03-06T08:25:59.987Z,1.87
2023-03-06T08:30:12.544Z,1.50
2023-03-06T08:34:26.910Z,1.43
2023-03-06T08:38:40.312Z,1.30
2023-03-06T08:42:52.028Z,1.30
2023-03-06T08:47:04.276Z,1.13
2023-03-06T08:51:17.612Z,1.13
2023-03-06T08:55:30.207Z,1.30
2023-03-06T08:59:42.411Z,1.00
2023-03-06T09:03:56.137Z,1.33
2023-03-06T09:08:10.779Z,0.73
2023-03-06T09:12:22.700Z,0.80
2023-03-06T09:16:34.546Z,0.80
2023-03-06T09:20:46.272Z,0.80
2023-03-06T09:24:58.345Z,0.90
2023-03-06T09:29:10.123Z,0.80
2023-03-06T09:33:25.445Z,0.70
2023-03-06T09:37:37.289Z,0.65
2023-03-06T09:41:50.624Z,0.55
2023-03-06T09:46:31.654Z,0.55
2023-03-06T09:50:59.785Z,0.40
2023-03-06T09:55:25.131Z,0.40
2023-03-06T09:59:50.795Z,1.10
2023-03-06T10:04:44.958Z,1.08
2023-03-06T10:08:59.649Z,0.90
2023-03-06T10:13:26.569Z,0.55
2023-03-06T10:17:43.754Z,0.55
2023-03-06T10:22:29.446Z,0.30
2023-03-06T10:27:00.545Z,0.85
2023-03-06T10:31:23.999Z,0.73
2023-03-06T10:35:57.034Z,0.43
2023-03-06T10:40:28.124Z,0.50
2023-03-06T10:44:39.865Z,0.75
2023-03-06T10:48:59.009Z,0.40
2023-03-06T10:53:23.772Z,0.38
2023-03-06T10:57:35.476Z,0.43
2023-03-06T11:01:58.703Z,0.50
2023-03-06T11:06:30.283Z,0.52
2023-03-06T11:11:06.000Z,0.40
2023-03-06T11:15:22.780Z,0.50
2023-03-06T11:19:34.625Z,0.47
2023-03-06T11:23:47.460Z,1.10
2023-03-06T11:28:26.047Z,0.30
2023-03-06T11:32:52.431Z,0.68
2023-03-06T11:37:33.711Z,0.60
2023-03-06T11:42:18.923Z,0.52
2023-03-06T11:46:41.615Z,0.50
2023-03-06T11:50:59.421Z,0.60
2023-03-06T11:55:21.497Z,0.80
2023-03-06T12:00:00.607Z,0.70
2023-03-06T12:04:34.052Z,0.57
2023-03-06T12:08:48.596Z,0.55
2023-03-06T12:13:41.759Z,0.80
2023-03-06T12:17:59.932Z,0.80
2023-03-06T12:22:40.951Z,0.80
2023-03-06T12:27:30.310Z,0.80
2023-03-06T12:32:00.339Z,0.63
2023-03-06T12:36:27.311Z,1.00
2023-03-06T12:41:11.335Z,1.30
2023-03-06T12:45:25.865Z,1.30
2023-03-06T12:49:43.281Z,0.70
2023-03-06T12:53:55.744Z,2.15
2023-03-06T12:58:34.494Z,1.30
2023-03-06T13:03:24.614Z,1.05
2023-03-06T13:07:55.775Z,2.00
2023-03-06T13:12:32.395Z,1.50
2023-03-06T13:16:44.277Z,1.25
2023-03-06T13:20:56.639Z,1.20
2023-03-06T13:25:17.602Z,1.40
2023-03-06T13:29:38.361Z,1.33
2023-03-06T13:34:01.136Z,1.75
2023-03-06T13:38:31.475Z,1.52
2023-03-06T13:42:43.217Z,1.77
2023-03-06T13:47:05.648Z,1.48
2023-03-06T13:51:27.626Z,2.58
2023-03-06T13:56:01.336Z,1.80
2023-03-06T14:00:46.764Z,2.15
2023-03-06T14:05:01.105Z,2.80
2023-03-06T14:09:42.284Z,2.50
2023-03-06T14:13:57.509Z,2.30
2023-03-06T14:18:23.763Z,3.28
2023-03-06T14:22:35.576Z,3.08
2023-03-06T14:26:50.108Z,3.40
2023-03-06T14:31:04.330Z,3.70
2023-03-06T14:35:31.594Z,3.90
2023-03-06T14:39:44.803Z,3.72
2023-03-06T14:44:22.527Z,3.63
2023-03-06T14:48:45.677Z,3.80
2023-03-06T14:57:40.586Z,3.58
2023-03-06T15:01:58.918Z,4.18
2023-03-06T15:06:15.872Z,3.00
2023-03-06T15:10:32.853Z,3.33
2023-03-06T15:14:57.090Z,2.20
2023-03-06T15:19:18.683Z,2.58
2023-03-06T15:23:42.238Z,2.67
2023-03-06T15:28:01.287Z,3.47
2023-03-06T15:32:31.400Z,5.10
2023-03-06T15:36:54.992Z,3.50
2023-03-06T15:41:19.629Z,2.50
2023-03-06T15:45:32.115Z,3.10
2023-03-06T15:49:43.900Z,3.30
2023-03-06T15:54:09.808Z,3.10
2023-03-06T15:58:33.279Z,4.40
2023-03-06T16:02:46.608Z,4.18
2023-03-06T16:06:58.344Z,4.30
2023-03-06T16:11:18.255Z,5.30
2023-03-06T16:15:39.579Z,5.33
2023-03-06T16:19:51.181Z,6.83
2023-03-06T16:24:03.221Z,6.73
2023-03-06T16:28:16.512Z,5.80
2023-03-06T16:32:28.857Z,6.90
2023-03-06T16:36:41.590Z,5.75
2023-03-06T16:40:53.259Z,5.50
2023-03-06T16:45:05.281Z,5.10
2023-03-06T16:49:19.157Z,6.07
2023-03-06T16:53:30.810Z,9.37
2023-03-06T16:57:42.457Z,6.43
2023-03-06T17:01:54.156Z,6.67
2023-03-06T17:06:20.489Z,6.43
2023-03-06T17:10:32.633Z,7.70
2023-03-06T17:14:44.253Z,7.97
2023-03-06T17:18:58.111Z,8.07
2023-03-06T17:23:09.845Z,8.30
2023-03-06T17:27:24.565Z,9.43
2023-03-06T17:31:40.584Z,9.97
2023-03-06T17:35:58.473Z,9.53
2023-03-06T17:40:10.562Z,9.53
2023-03-06T17:44:22.327Z,10.17
2023-03-06T17:48:34.612Z,8.57
2023-03-06T17:52:46.378Z,8.60
2023-03-06T17:57:03.487Z,9.57
2023-03-06T18:01:19.024Z,9.60
2023-03-06T18:05:32.380Z,10.40
2023-03-06T18:09:44.223Z,9.67
2023-03-06T18:13:55.945Z,10.67
2023-03-06T18:18:08.682Z,10.97
2023-03-06T18:22:20.423Z,11.17
2023-03-06T18:26:32.228Z,10.67
2023-03-06T18:30:43.930Z,10.67
2023-03-06T18:34:55.870Z,10.27
2023-03-06T18:39:09.649Z,10.73
2023-03-06T18:43:21.338Z,9.70
2023-03-06T18:47:33.705Z,10.00
2023-03-06T18:51:46.532Z,11.37
2023-03-06T18:55:58.162Z,11.63
2023-03-06T19:00:10.407Z,10.30
2023-03-06T19:04:22.054Z,10.87
2023-03-06T19:08:34.719Z,10.43
2023-03-06T19:12:46.361Z,10.33
2023-03-06T19:16:57.980Z,10.43
2023-03-06T19:21:12.030Z,10.40
2023-03-06T19:25:23.669Z,10.20
2023-03-06T19:29:35.412Z,8.90
2023-03-06T19:33:48.886Z,9.33
2023-03-06T19:38:00.526Z,8.60
2023-03-06T19:42:13.887Z,8.47
2023-03-06T19:46:34.958Z,9.37
2023-03-06T19:50:46.979Z,8.50
2023-03-06T19:54:58.727Z,8.90
2023-03-06T19:59:10.559Z,9.57
2023-03-06T20:03:22.228Z,8.97
2023-03-06T20:07:34.066Z,8.83
2023-03-06T20:11:45.793Z,9.03
2023-03-06T20:15:58.188Z,8.97
2023-03-06T20:20:10.950Z,8.30
2023-03-06T20:24:22.960Z,8.33
2023-03-06T20:28:35.454Z,9.23
2023-03-06T20:32:47.258Z,9.53
2023-03-06T20:36:59.137Z,9.37
2023-03-06T20:41:19.120Z,9.13
2023-03-06T20:45:36.160Z,9.03
2023-03-06T20:49:47.791Z,10.10
2023-03-06T20:54:01.959Z,9.73
2023-03-06T20:58:13.741Z,9.40
2023-03-06T21:02:25.547Z,10.17
2023-03-06T21:06:37.869Z,9.23
2023-03-06T21:10:49.840Z,9.13
2023-03-06T21:15:01.549Z,10.27
2023-03-06T21:19:13.291Z,9.73
2023-03-06T21:23:25.209Z,8.77
2023-03-06T21:27:36.978Z,10.27
2023-03-06T21:31:48.629Z,9.00
2023-03-06T21:36:00.374Z,9.47
2023-03-06T21:40:17.133Z,9.10
2023-03-06T21:44:28.787Z,8.83
2023-03-06T21:48:42.129Z,8.77
2023-03-06T21:52:56.220Z,9.23
2023-03-06T21:57:07.942Z,8.63
2023-03-06T22:01:24.029Z,9.20
2023-03-06T22:05:35.795Z,8.20
2023-03-06T22:09:47.545Z,7.90
2023-03-06T22:13:59.222Z,8.03
2023-03-06T22:18:15.787Z,8.37
2023-03-06T22:22:27.660Z,7.90
2023-03-06T22:26:39.301Z,8.40
2023-03-06T22:30:50.935Z,8.00
2023-03-06T22:35:02.614Z,8.40
2023-03-06T22:39:14.359Z,8.37
2023-03-06T22:43:26.117Z,7.50
2023-03-06T22:47:38.207Z,6.97
2023-03-06T22:51:49.886Z,7.10
2023-03-06T22:56:03.563Z,6.30
2023-03-06T23:00:15.451Z,6.50
2023-03-06T23:04:27.284Z,5.77
2023-03-06T23:08:39.190Z,5.50
2023-03-06T23:12:50.925Z,4.40
2023-03-06T23:17:21.650Z,4.43
2023-03-06T23:21:51.873Z,4.20
2023-03-06T23:26:25.765Z,4.30
2023-03-06T23:30:42.093Z,4.20
2023-03-06T23:34:56.801Z,4.87
2023-03-06T23:39:09.184Z,4.60
2023-03-06T23:43:21.088Z,5.67
2023-03-06T23:47:34.116Z,4.33
2023-03-06T23:51:45.847Z,4.30
2023-03-06T23:55:57.675Z,3.80
